createdAt,value
2018-06-03T00:01:19.575Z,4.80
2018-06-03T00:03:47.914Z,4.40
2018-06-03T00:06:16.173Z,5.20
2018-06-03T00:08:44.550Z,5.17
2018-06-03T00:11:13.027Z,5.20
2018-06-03T00:13:41.302Z,5.60
2018-06-03T00:16:09.913Z,6.03
2018-06-03T00:18:38.193Z,5.63
2018-06-03T00:21:29.273Z,5.45
2018-06-03T00:23:57.579Z,5.03
2018-06-03T00:26:26.212Z,4.90
2018-06-03T00:28:54.475Z,4.90
2018-06-03T00:31:22.788Z,5.37
2018-06-03T00:33:51.987Z,5.10
2018-06-03T00:36:32.032Z,5.03
2018-06-03T00:39:00.319Z,5.28
2018-06-03T00:41:28.612Z,5.37
2018-06-03T00:43:56.906Z,5.80
2018-06-03T00:46:25.206Z,5.20
2018-06-03T00:48:53.538Z,5.10
2018-06-03T00:51:21.821Z,5.97
2018-06-03T00:53:50.104Z,5.60
2018-06-03T00:56:30.161Z,5.00
2018-06-03T00:58:58.800Z,5.70
2018-06-03T01:01:27.107Z,4.90
2018-06-03T01:03:55.411Z,5.27
2018-06-03T01:06:23.732Z,4.70
2018-06-03T01:08:52.016Z,4.53
2018-06-03T01:11:20.335Z,4.45
2018-06-03T01:13:48.635Z,5.10
2018-06-03T01:16:16.942Z,4.75
2018-06-03T01:18:45.229Z,4.77
2018-06-03T01:21:14.318Z,5.20
2018-06-03T01:23:42.934Z,5.20
2018-06-03T01:26:12.293Z,4.70
2018-06-03T01:28:40.608Z,4.87
2018-06-03T01:31:09.255Z,4.90
2018-06-03T01:33:37.582Z,4.80
2018-06-03T01:36:05.857Z,5.27
2018-06-03T01:38:34.188Z,5.07
2018-06-03T01:41:02.479Z,4.80
2018-06-03T01:43:30.811Z,4.43
2018-06-03T01:45:59.115Z,4.50
2018-06-03T01:48:27.439Z,4.60
2018-06-03T01:50:55.743Z,4.93
2018-06-03T01:53:24.054Z,4.75
2018-06-03T01:55:52.337Z,4.70
2018-06-03T01:58:20.632Z,4.57
2018-06-03T02:00:48.936Z,4.80
2018-06-03T02:03:17.225Z,4.85
2018-06-03T02:05:45.525Z,4.90
2018-06-03T02:08:13.810Z,5.40
2018-06-03T02:10:42.093Z,5.07
2018-06-03T02:13:10.414Z,4.43
2018-06-03T02:15:38.729Z,4.53
2018-06-03T02:18:07.026Z,5.10
2018-06-03T02:20:35.287Z,4.77
2018-06-03T02:23:03.574Z,4.97
2018-06-03T02:25:31.871Z,5.03
2018-06-03T02:28:00.158Z,6.60
2018-06-03T02:30:28.465Z,5.40
2018-06-03T02:32:56.755Z,5.20
2018-06-03T02:35:25.054Z,5.33
2018-06-03T02:37:53.349Z,4.87
2018-06-03T02:40:21.665Z,5.17
2018-06-03T02:42:49.942Z,5.25
2018-06-03T02:45:18.239Z,5.10
2018-06-03T02:47:46.523Z,4.57
2018-06-03T02:50:14.959Z,4.90
2018-06-03T02:52:43.253Z,5.13
2018-06-03T02:55:11.551Z,4.60
2018-06-03T02:57:39.838Z,4.80
2018-06-03T03:00:08.166Z,4.97
2018-06-03T03:02:36.475Z,4.90
2018-06-03T03:05:05.282Z,4.45
2018-06-03T03:07:33.559Z,4.97
2018-06-03T03:10:02.463Z,4.80
2018-06-03T03:12:30.742Z,5.03
2018-06-03T03:14:59.093Z,5.07
2018-06-03T03:17:27.384Z,4.55
2018-06-03T03:19:55.705Z,4.47
2018-06-03T03:22:23.991Z,4.63
2018-06-03T03:24:52.268Z,4.83
2018-06-03T03:27:21.518Z,4.90
2018-06-03T03:29:49.782Z,4.80
2018-06-03T03:32:18.118Z,5.07
2018-06-03T03:34:46.398Z,4.87
2018-06-03T03:37:14.714Z,5.20
2018-06-03T03:39:42.997Z,4.50
2018-06-03T03:42:11.314Z,4.90
2018-06-03T03:44:39.632Z,4.70
2018-06-03T03:47:07.931Z,4.90
2018-06-03T03:49:36.454Z,5.20
2018-06-03T03:52:04.885Z,5.20
2018-06-03T03:54:33.157Z,4.97
2018-06-03T03:57:01.442Z,5.17
2018-06-03T03:59:29.709Z,4.80
2018-06-03T04:01:58.095Z,5.30
2018-06-03T04:04:26.366Z,5.00
2018-06-03T04:06:54.738Z,5.00
2018-06-03T04:10:21.981Z,5.47
2018-06-03T04:12:51.179Z,4.43
2018-06-03T04:15:20.281Z,4.95
2018-06-03T04:17:49.480Z,4.73
2018-06-03T04:20:18.677Z,4.78
2018-06-03T04:22:47.874Z,4.80
2018-06-03T04:25:17.090Z,4.90
2018-06-03T04:27:46.185Z,4.63
2018-06-03T04:30:15.633Z,5.07
2018-06-03T04:32:44.872Z,5.57
2018-06-03T04:35:14.087Z,5.20
2018-06-03T04:37:43.223Z,4.80
2018-06-03T04:40:12.350Z,4.43
2018-06-03T04:42:41.462Z,4.43
2018-06-03T04:45:10.753Z,4.50
2018-06-03T04:47:39.844Z,4.77
2018-06-03T04:50:08.947Z,4.90
2018-06-03T04:52:38.006Z,4.67
2018-06-03T04:55:07.293Z,4.93
2018-06-03T04:57:36.367Z,4.80
2018-06-03T05:00:05.545Z,4.70
2018-06-03T05:02:34.715Z,5.07
2018-06-03T05:05:03.822Z,5.40
2018-06-03T05:07:33.007Z,5.10
2018-06-03T05:10:02.206Z,5.07
2018-06-03T05:12:31.370Z,5.43
2018-06-03T05:15:00.530Z,4.95
2018-06-03T05:17:29.716Z,5.33
2018-06-03T05:19:58.857Z,4.90
2018-06-03T05:22:28.066Z,4.60
2018-06-03T05:24:57.248Z,4.70
2018-06-03T05:27:26.376Z,5.60
2018-06-03T05:29:55.517Z,5.07
2018-06-03T05:32:24.658Z,4.87
2018-06-03T05:34:53.800Z,5.80
2018-06-03T05:37:23.680Z,5.83
2018-06-03T05:39:53.086Z,5.57
2018-06-03T05:42:22.217Z,5.20
2018-06-03T05:44:51.383Z,6.03
2018-06-03T05:47:20.499Z,5.65
2018-06-03T05:49:49.569Z,6.03
2018-06-03T05:52:18.760Z,5.92
2018-06-03T05:54:47.959Z,5.90
2018-06-03T05:57:17.065Z,5.40
2018-06-03T05:59:46.789Z,5.92
2018-06-03T06:02:15.968Z,5.10
2018-06-03T06:04:45.097Z,5.40
2018-06-03T06:07:14.353Z,5.50
2018-06-03T06:09:43.455Z,5.30
2018-06-03T06:12:12.657Z,5.70
2018-06-03T06:14:41.750Z,5.40
2018-06-03T06:17:10.881Z,5.67
2018-06-03T06:19:40.026Z,5.80
2018-06-03T06:22:09.174Z,5.53
2018-06-03T06:24:38.226Z,5.43
2018-06-03T06:27:07.371Z,5.07
2018-06-03T06:29:36.457Z,6.17
2018-06-03T06:32:06.642Z,5.55
2018-06-03T06:34:35.902Z,5.70
2018-06-03T06:37:05.072Z,5.50
2018-06-03T06:39:34.187Z,6.10
2018-06-03T06:42:03.435Z,5.40
2018-06-03T06:44:32.948Z,6.17
2018-06-03T06:47:02.136Z,6.10
2018-06-03T06:49:31.300Z,6.87
2018-06-03T06:52:00.846Z,6.27
2018-06-03T06:54:30.090Z,6.23
2018-06-03T06:56:59.233Z,5.80
2018-06-03T06:59:28.433Z,6.10
2018-06-03T07:01:57.634Z,6.20
2018-06-03T07:04:26.827Z,6.37
2018-06-03T07:06:55.923Z,6.00
2018-06-03T07:09:25.022Z,6.35
2018-06-03T07:11:54.122Z,6.10
2018-06-03T07:14:23.268Z,5.33
2018-06-03T07:16:52.927Z,5.47
2018-06-03T07:19:22.062Z,4.80
2018-06-03T07:21:51.165Z,4.90
2018-06-03T07:24:20.301Z,4.80
2018-06-03T07:26:49.559Z,4.87
2018-06-03T07:29:18.775Z,4.23
2018-06-03T07:31:47.896Z,3.50
2018-06-03T07:34:17.036Z,3.70
2018-06-03T07:36:46.229Z,3.70
2018-06-03T07:39:15.404Z,4.30
2018-06-03T07:41:44.565Z,3.97
2018-06-03T07:44:13.767Z,3.90
2018-06-03T07:46:42.885Z,3.70
2018-06-03T07:49:12.193Z,4.15
2018-06-03T07:51:41.378Z,3.80
2018-06-03T07:54:10.689Z,4.17
2018-06-03T07:56:39.886Z,4.57
2018-06-03T07:59:09.150Z,3.40
2018-06-03T08:01:38.376Z,4.33
2018-06-03T08:04:07.461Z,4.50
2018-06-03T08:06:36.641Z,4.87
2018-06-03T08:09:07.684Z,4.20
2018-06-03T08:11:37.316Z,4.33
2018-06-03T08:14:06.487Z,4.00
2018-06-03T08:16:35.804Z,3.83
2018-06-03T08:19:05.701Z,3.90
2018-06-03T08:21:34.806Z,4.30
2018-06-03T08:24:03.996Z,3.47
2018-06-03T08:26:33.108Z,3.70
2018-06-03T08:29:02.259Z,3.70
2018-06-03T08:31:31.409Z,3.23
2018-06-03T08:34:00.593Z,3.50
2018-06-03T08:36:29.876Z,3.30
2018-06-03T08:38:59.004Z,3.00
2018-06-03T08:41:28.069Z,2.87
2018-06-03T08:43:57.161Z,3.50
2018-06-03T08:46:26.330Z,3.77
2018-06-03T08:48:55.573Z,3.00
2018-06-03T08:51:24.669Z,4.30
2018-06-03T08:53:53.851Z,3.33
2018-06-03T08:56:23.059Z,3.80
2018-06-03T08:58:59.127Z,3.37
2018-06-03T09:01:28.200Z,3.10
2018-06-03T09:03:57.408Z,2.80
2018-06-03T09:06:26.604Z,3.40
2018-06-03T09:08:55.909Z,3.67
2018-06-03T09:11:25.038Z,3.43
2018-06-03T09:13:54.205Z,3.30
2018-06-03T09:16:23.380Z,3.07
2018-06-03T09:18:53.252Z,3.37
2018-06-03T09:21:22.513Z,2.92
2018-06-03T09:23:51.665Z,2.60
2018-06-03T09:26:21.528Z,3.10
2018-06-03T09:28:50.633Z,2.77
2018-06-03T09:31:19.723Z,2.70
2018-06-03T09:33:48.787Z,3.30
2018-06-03T09:45:18.789Z,3.25
2018-06-03T09:47:48.598Z,3.40
2018-06-03T09:50:18.054Z,3.10
2018-06-03T09:52:47.382Z,3.13
2018-06-03T09:55:16.462Z,3.42
2018-06-03T09:57:46.014Z,3.17
2018-06-03T10:00:17.012Z,3.00
2018-06-03T10:02:46.243Z,3.00
2018-06-03T10:05:15.430Z,3.10
2018-06-03T10:07:44.555Z,3.33
2018-06-03T10:10:13.733Z,3.23
2018-06-03T10:12:42.845Z,2.90
2018-06-03T10:15:12.028Z,3.37
2018-06-03T10:17:41.532Z,2.87
2018-06-03T10:20:10.705Z,3.00
2018-06-03T10:22:40.115Z,3.33
2018-06-03T10:25:09.570Z,3.13
2018-06-03T10:27:39.130Z,3.27
2018-06-03T10:30:08.231Z,3.23
2018-06-03T10:32:37.428Z,2.97
2018-06-03T10:35:06.834Z,3.23
2018-06-03T10:37:36.263Z,3.20
2018-06-03T10:40:05.446Z,3.33
2018-06-03T10:42:34.630Z,3.25
2018-06-03T10:45:05.358Z,3.10
2018-06-03T10:47:34.459Z,3.33
2018-06-03T10:50:04.226Z,3.30
2018-06-03T10:52:33.593Z,3.27
2018-06-03T10:55:03.278Z,2.90
2018-06-03T10:57:32.469Z,3.00
2018-06-03T11:00:01.587Z,3.17
2018-06-03T11:02:30.778Z,3.97
2018-06-03T11:04:59.966Z,3.10
2018-06-03T11:07:29.162Z,3.20
2018-06-03T11:09:58.387Z,3.00
2018-06-03T11:12:28.481Z,3.17
2018-06-03T11:14:57.782Z,3.20
2018-06-03T11:17:26.968Z,2.93
2018-06-03T11:19:56.274Z,3.23
2018-06-03T11:22:27.001Z,3.27
2018-06-03T11:24:56.199Z,3.30
2018-06-03T11:27:25.343Z,3.13
2018-06-03T11:29:54.466Z,3.53
2018-06-03T11:32:23.592Z,3.20
2018-06-03T11:34:52.798Z,3.53
2018-06-03T11:37:21.890Z,2.85
2018-06-03T11:39:51.095Z,2.93
2018-06-03T11:42:20.282Z,3.05
2018-06-03T11:44:49.697Z,3.30
2018-06-03T11:47:18.876Z,3.10
2018-06-03T11:49:48.010Z,2.70
2018-06-03T11:52:17.235Z,2.90
2018-06-03T11:54:46.636Z,3.10
2018-06-03T11:57:15.809Z,2.67
2018-06-03T11:59:45.705Z,3.50
2018-06-03T12:02:16.390Z,3.10
2018-06-03T12:04:45.651Z,3.12
2018-06-03T12:07:14.819Z,2.85
2018-06-03T12:09:44.045Z,3.50
2018-06-03T12:12:13.212Z,3.27
2018-06-03T12:14:42.437Z,2.70
2018-06-03T12:17:11.621Z,2.90
2018-06-03T12:19:40.883Z,3.20
2018-06-03T12:22:10.099Z,3.02
2018-06-03T12:24:39.919Z,2.83
2018-06-03T12:27:09.122Z,2.83
2018-06-03T12:29:38.319Z,2.93
2018-06-03T12:32:07.474Z,3.00
2018-06-03T12:34:36.708Z,3.45
2018-06-03T12:37:06.716Z,3.30
2018-06-03T12:39:35.816Z,3.10
2018-06-03T12:42:06.010Z,3.30
2018-06-03T12:44:36.515Z,2.67
2018-06-03T12:47:06.502Z,2.97
2018-06-03T12:49:36.248Z,2.70
2018-06-03T12:52:06.181Z,2.70
2018-06-03T12:54:35.317Z,3.33
2018-06-03T12:57:04.917Z,2.57
2018-06-03T12:59:34.119Z,3.30
2018-06-03T13:02:03.630Z,3.00
2018-06-03T13:04:32.809Z,2.60
2018-06-03T13:07:01.963Z,2.80
2018-06-03T13:09:31.361Z,3.27
2018-06-03T13:12:01.152Z,2.77
2018-06-03T13:14:30.618Z,2.67
2018-06-03T13:17:00.262Z,2.63
2018-06-03T13:19:29.453Z,3.20
2018-06-03T13:21:58.611Z,2.40
2018-06-03T13:24:27.725Z,3.37
2018-06-03T13:26:56.899Z,2.83
2018-06-03T13:29:26.735Z,2.57
2018-06-03T13:31:57.174Z,2.60
2018-06-03T13:34:26.468Z,2.80
2018-06-03T13:36:55.789Z,2.80
2018-06-03T13:39:25.054Z,2.60
2018-06-03T13:41:54.826Z,2.60
2018-06-03T13:44:23.891Z,2.50
2018-06-03T13:46:53.220Z,2.40
2018-06-03T13:49:23.037Z,2.10
2018-06-03T13:51:52.328Z,2.63
2018-06-03T13:54:21.504Z,2.42
2018-06-03T13:56:52.209Z,2.77
2018-06-03T13:59:21.536Z,2.27
2018-06-03T14:01:53.684Z,2.63
2018-06-03T14:04:23.255Z,2.65
2018-06-03T14:06:52.493Z,2.53
2018-06-03T14:09:21.682Z,2.50
2018-06-03T14:11:51.219Z,2.90
2018-06-03T14:14:20.381Z,2.60
2018-06-03T14:16:50.043Z,3.00
2018-06-03T14:19:19.195Z,2.57
2018-06-03T14:21:48.298Z,2.57
2018-06-03T14:24:17.430Z,2.30
2018-06-03T14:26:46.503Z,2.27
2018-06-03T14:29:15.676Z,2.20
2018-06-03T14:31:44.793Z,2.10
2018-06-03T14:34:13.959Z,2.70
2018-06-03T14:36:43.070Z,2.40
2018-06-03T14:39:12.258Z,3.42
2018-06-03T14:41:41.734Z,3.43
2018-06-03T14:44:10.967Z,2.47
2018-06-03T14:46:40.097Z,2.20
2018-06-03T14:49:09.261Z,2.80
2018-06-03T14:51:38.530Z,2.40
2018-06-03T14:54:07.746Z,3.00
2018-06-03T14:56:36.906Z,3.20
2018-06-03T14:59:06.029Z,2.53
2018-06-03T15:01:35.203Z,2.60
2018-06-03T15:04:04.945Z,2.80
2018-06-03T15:06:34.473Z,2.50
2018-06-03T15:09:04.778Z,2.50
2018-06-03T15:11:33.973Z,2.00
2018-06-03T15:14:03.306Z,2.10
2018-06-03T15:16:32.479Z,2.67
2018-06-03T15:19:01.699Z,2.20
2018-06-03T15:21:30.990Z,2.20
2018-06-03T15:24:00.160Z,2.10
2018-06-03T15:26:29.350Z,2.83
2018-06-03T15:28:58.570Z,2.50
2018-06-03T15:31:27.730Z,2.10
2018-06-03T15:33:56.961Z,2.40
2018-06-03T15:36:26.409Z,2.20
2018-06-03T15:38:55.913Z,2.20
2018-06-03T15:41:26.202Z,2.20
2018-06-03T15:43:57.338Z,3.00
2018-06-03T15:46:26.638Z,3.13
2018-06-03T15:48:56.817Z,2.20
2018-06-03T15:51:26.028Z,2.30
2018-06-03T15:53:55.106Z,2.13
2018-06-03T15:56:24.542Z,2.02
2018-06-03T15:58:53.982Z,2.23
2018-06-03T16:01:23.302Z,2.33
2018-06-03T16:03:52.720Z,2.10
2018-06-03T16:06:22.424Z,2.20
2018-06-03T16:08:52.772Z,2.30
2018-06-03T16:11:22.061Z,2.00
2018-06-03T16:13:51.271Z,2.27
2018-06-03T16:16:20.579Z,2.52
2018-06-03T16:18:55.888Z,2.30
2018-06-03T16:21:25.087Z,2.87
2018-06-03T16:23:54.621Z,1.90
2018-06-03T16:26:24.354Z,2.40
2018-06-03T16:28:53.510Z,1.93
2018-06-03T16:31:22.865Z,2.03
2018-06-03T16:33:52.596Z,2.10
2018-06-03T16:36:22.283Z,1.80
2018-06-03T16:38:51.658Z,2.10
2018-06-03T16:41:20.845Z,1.70
2018-06-03T16:43:50.345Z,2.00
2018-06-03T16:46:19.604Z,2.00
2018-06-03T16:48:48.893Z,1.90
2018-06-03T16:51:18.116Z,2.00
2018-06-03T16:53:47.387Z,1.95
2018-06-03T16:56:16.796Z,2.00
2018-06-03T16:58:45.964Z,1.93
2018-06-03T17:01:16.117Z,2.25
2018-06-03T17:03:45.282Z,1.90
2018-06-03T17:06:14.453Z,2.10
2018-06-03T17:08:43.672Z,1.70
2018-06-03T17:11:12.976Z,2.00
2018-06-03T17:13:47.366Z,1.83
2018-06-03T17:16:16.980Z,2.08
2018-06-03T17:18:46.467Z,1.90
2018-06-03T17:21:15.994Z,1.80
2018-06-03T17:23:45.189Z,1.83
2018-06-03T17:26:14.431Z,2.30
2018-06-03T17:28:43.539Z,1.77
2018-06-03T17:31:12.675Z,2.00
2018-06-03T17:33:45.362Z,1.90
2018-06-03T17:36:14.653Z,2.10
2018-06-03T17:44:44.945Z,2.30
2018-06-03T17:47:14.041Z,2.17
2018-06-03T17:49:43.126Z,2.10
2018-06-03T17:52:12.352Z,1.70
2018-06-03T17:54:41.510Z,2.30
2018-06-03T17:57:10.705Z,2.00
2018-06-03T17:59:39.928Z,1.70
2018-06-03T18:02:09.135Z,2.10
2018-06-03T18:04:38.342Z,2.17
2018-06-03T18:07:07.537Z,2.17
2018-06-03T18:09:37.446Z,1.90
2018-06-03T18:12:06.626Z,2.00
2018-06-03T18:14:35.801Z,2.23
2018-06-03T18:17:05.214Z,1.97
2018-06-03T18:19:34.454Z,1.93
2018-06-03T18:22:03.700Z,2.03
2018-06-03T18:24:33.192Z,2.07
2018-06-03T18:27:02.604Z,1.93
2018-06-03T18:29:31.806Z,2.00
2018-06-03T18:32:01.092Z,1.80
2018-06-03T18:34:30.759Z,2.00
2018-06-03T18:36:59.956Z,1.90
2018-06-03T18:39:35.731Z,2.03
2018-06-03T18:42:05.872Z,2.30
2018-06-03T18:44:35.034Z,2.30
2018-06-03T18:47:04.312Z,2.10
2018-06-03T18:49:33.641Z,2.00
2018-06-03T18:52:03.017Z,2.10
2018-06-03T18:54:32.219Z,2.07
2018-06-03T18:57:02.351Z,2.00
2018-06-03T18:59:31.559Z,2.47
2018-06-03T19:02:00.786Z,2.20
2018-06-03T19:04:31.001Z,2.50
2018-06-03T19:07:00.264Z,2.50
2018-06-03T19:09:29.749Z,2.40
2018-06-03T19:11:59.072Z,2.30
2018-06-03T19:14:28.371Z,2.33
2018-06-03T19:16:57.654Z,2.93
2018-06-03T19:19:27.340Z,3.10
2018-06-03T19:21:56.487Z,3.20
2018-06-03T19:24:25.663Z,2.57
2018-06-03T19:26:55.049Z,2.80
2018-06-03T19:29:24.274Z,2.77
2018-06-03T19:31:54.079Z,3.30
2018-06-03T19:34:23.486Z,3.15
2018-06-03T19:36:52.777Z,2.90
2018-06-03T19:39:22.067Z,2.85
2018-06-03T19:41:51.486Z,3.00
2018-06-03T19:44:20.581Z,3.10
2018-06-03T19:46:49.766Z,3.43
2018-06-03T19:49:18.919Z,3.40
2018-06-03T19:51:48.088Z,4.13
2018-06-03T19:54:18.293Z,3.75
2018-06-03T19:56:47.580Z,3.63
2018-06-03T19:59:16.882Z,3.27
2018-06-03T20:01:46.091Z,3.73
2018-06-03T20:04:15.282Z,3.87
2018-06-03T20:06:45.316Z,3.20
2018-06-03T20:09:14.485Z,4.10
2018-06-03T20:11:44.500Z,3.50
2018-06-03T20:14:13.666Z,4.78
2018-06-03T20:16:42.863Z,3.20
2018-06-03T20:19:12.163Z,2.90
2018-06-03T20:21:41.472Z,3.00
2018-06-03T20:24:10.644Z,3.65
2018-06-03T20:26:39.891Z,4.00
2018-06-03T20:29:09.200Z,3.00
2018-06-03T20:31:39.218Z,3.37
2018-06-03T20:34:09.438Z,3.50
2018-06-03T20:36:38.618Z,3.20
2018-06-03T20:39:08.580Z,4.00
2018-06-03T20:41:37.735Z,3.70
2018-06-03T20:44:06.911Z,4.17
2018-06-03T20:46:36.048Z,4.20
2018-06-03T20:49:05.293Z,3.90
2018-06-03T20:51:34.578Z,4.50
2018-06-03T20:54:03.841Z,4.10
2018-06-03T20:56:33.046Z,3.90
2018-06-03T20:59:02.307Z,4.33
2018-06-03T21:01:31.446Z,4.28
2018-06-03T21:04:00.720Z,3.53
2018-06-03T21:06:29.883Z,3.70
2018-06-03T21:08:59.135Z,3.53
2018-06-03T21:11:28.285Z,3.90
2018-06-03T21:13:57.475Z,3.30
2018-06-03T21:16:27.009Z,3.67
2018-06-03T21:18:56.109Z,3.40
2018-06-03T21:21:25.927Z,3.60
2018-06-03T21:23:55.040Z,3.93
2018-06-03T21:26:24.567Z,3.27
2018-06-03T21:28:54.143Z,3.67
2018-06-03T21:31:23.333Z,4.20
2018-06-03T21:33:52.671Z,3.10
2018-06-03T21:36:21.768Z,3.37
2018-06-03T21:38:51.065Z,3.70
2018-06-03T21:41:20.198Z,3.30
2018-06-03T21:43:49.346Z,3.40
2018-06-03T21:46:18.452Z,3.17
2018-06-03T21:48:47.660Z,3.13
2018-06-03T21:51:16.829Z,3.58
2018-06-03T21:53:46.051Z,3.22
2018-06-03T21:56:15.202Z,3.58
2018-06-03T21:58:44.299Z,3.37
2018-06-03T22:01:13.532Z,3.20
2018-06-03T22:03:43.125Z,3.53
2018-06-03T22:06:12.601Z,3.35
2018-06-03T22:08:41.814Z,3.20
2018-06-03T22:11:10.927Z,3.92
2018-06-03T22:13:40.156Z,3.40
2018-06-03T22:16:09.401Z,3.20
2018-06-03T22:18:38.822Z,2.90
2018-06-03T22:21:07.910Z,3.10
2018-06-03T22:23:37.006Z,3.13
2018-06-03T22:26:06.134Z,3.30
2018-06-03T22:28:35.282Z,3.10
2018-06-03T22:31:04.403Z,3.00
2018-06-03T22:33:33.580Z,3.40
2018-06-03T22:36:02.770Z,3.40
2018-06-03T22:38:31.889Z,3.30
2018-06-03T22:41:01.091Z,3.20
2018-06-03T22:43:30.261Z,3.07
2018-06-03T22:45:59.357Z,3.50
2018-06-03T22:48:28.885Z,3.90
2018-06-03T22:50:58.064Z,3.50
2018-06-03T22:53:27.182Z,3.17
2018-06-03T22:55:56.310Z,3.07
2018-06-03T22:58:25.640Z,3.40
2018-06-03T23:00:54.940Z,3.33
2018-06-03T23:03:24.257Z,2.95
2018-06-03T23:05:53.441Z,3.03
2018-06-03T23:08:22.726Z,3.33
2018-06-03T23:10:52.096Z,3.10
2018-06-03T23:13:21.323Z,3.37
2018-06-03T23:15:51.937Z,3.77
2018-06-03T23:18:22.097Z,3.20
2018-06-03T23:20:51.345Z,3.57
2018-06-03T23:23:20.570Z,3.30
2018-06-03T23:25:50.196Z,3.20
2018-06-03T23:28:19.413Z,3.90
2018-06-03T23:30:48.644Z,3.40
2018-06-03T23:33:18.011Z,3.80
2018-06-03T23:35:47.185Z,3.40
2018-06-03T23:38:16.402Z,3.20
2018-06-03T23:40:45.727Z,3.07
2018-06-03T23:43:14.907Z,3.50
2018-06-03T23:45:44.200Z,3.43
2018-06-03T23:48:13.402Z,3.70
2018-06-03T23:50:42.632Z,3.60
2018-06-03T23:53:11.872Z,3.90
2018-06-03T23:55:41.499Z,3.70
2018-06-03T23:58:10.944Z,3.70
